Time;durP1;ratioP1;P1;durP2;ratioP2;P2;SDS_P1;SDS_P2;PMS_P1;PMS_P2;Temp;Humidity;BMP_temperature;BMP_pressure;BME280_temperature;BME280_humidity;BME280_pressure;Samples;Min_cycle;Max_cycle;Signal;HPM_P1;HPM_P2
2022/09/13 00:01:01;;;;;;;0.50;0.50;;;;;;;18.30;53.08;99340.84;4952691;29;20058;-88
2022/09/13 00:03:26;;;;;;;0.73;0.73;;;;;;;18.04;53.04;99284.38;4952366;28;20421;-88
2022/09/13 00:05:52;;;;;;;0.73;0.73;;;;;;;17.93;53.53;99292.03;4952382;29;20048;-88
2022/09/13 00:08:18;;;;;;;1.33;0.73;;;;;;;17.91;53.31;99293.09;4952455;29;20098;-87
2022/09/13 00:10:44;;;;;;;1.08;1.02;;;;;;;17.57;53.31;99226.28;4951981;29;20039;-87
2022/09/13 00:13:11;;;;;;;1.38;1.27;;;;;;;17.92;53.10;99276.13;4952063;29;20043;-88
2022/09/13 00:15:43;;;;;;;0.30;0.30;;;;;;;17.70;52.94;99234.50;4952262;29;20086;-88
2022/09/13 00:18:08;;;;;;;0.20;0.20;;;;;;;17.79;53.00;99260.72;4952233;29;20040;-88
2022/09/13 00:20:34;;;;;;;0.32;0.32;;;;;;;17.79;53.29;99267.88;4952237;29;20036;-88
2022/09/13 00:22:59;;;;;;;0.95;0.95;;;;;;;17.49;53.16;99224.00;4952483;29;20027;-88
2022/09/13 00:25:25;;;;;;;0.95;0.82;;;;;;;17.87;52.77;99276.31;4951897;29;20039;-88
2022/09/13 00:27:50;;;;;;;0.65;0.65;;;;;;;17.64;52.74;99216.16;4952560;29;20390;-88
2022/09/13 00:30:16;;;;;;;0.93;0.82;;;;;;;17.60;52.56;99226.13;4952454;29;20038;-88
2022/09/13 00:32:41;;;;;;;0.55;0.55;;;;;;;18.16;52.48;99327.38;4954479;28;20561;-89
2022/09/13 00:35:07;;;;;;;0.63;0.63;;;;;;;18.01;52.43;99284.53;4956039;29;20429;-88
2022/09/13 00:37:33;;;;;;;1.77;1.48;;;;;;;17.80;52.77;99265.13;4956210;28;20094;-87
2022/09/13 00:39:59;;;;;;;0.98;0.98;;;;;;;17.58;52.86;99240.47;4955895;29;20043;-86
2022/09/13 00:42:31;;;;;;;0.98;0.98;;;;;;;17.71;52.55;99236.25;4956044;29;20038;-95
2022/09/13 00:44:58;;;;;;;0.68;0.68;;;;;;;17.78;52.32;99245.66;4951554;29;20054;-86
2022/09/13 00:47:23;;;;;;;0.85;0.70;;;;;;;18.24;52.54;99326.03;4942468;29;20486;-85
2022/09/13 00:49:55;;;;;;;0.35;0.35;;;;;;;17.98;52.55;99287.34;4955918;29;20041;-85
2022/09/13 00:52:23;;;;;;;0.30;0.30;;;;;;;17.56;52.51;99211.22;4955863;29;20067;-85
2022/09/13 00:54:55;;;;;;;0.77;0.55;;;;;;;18.13;51.75;99283.00;4955719;29;20042;-85
2022/09/13 00:57:23;;;;;;;1.08;0.93;;;;;;;17.80;51.74;99230.44;4954775;29;20486;-87
2022/09/13 01:00:00;;;;;;;0.65;0.65;;;;;;;17.88;51.82;99270.94;4955214;29;20054;-87
2022/09/13 01:02:27;;;;;;;0.65;0.65;;;;;;;17.85;52.21;99255.06;4970629;28;20141;-86
2022/09/13 01:04:53;;;;;;;0.65;0.65;;;;;;;17.57;53.08;99231.63;4955250;28;20039;-87
2022/09/13 01:07:19;;;;;;;0.30;0.30;;;;;;;18.29;52.16;99324.91;4970679;28;20046;-85
2022/09/13 01:09:47;;;;;;;0.68;0.68;;;;;;;18.05;52.15;99256.72;4955165;29;20035;-86
2022/09/13 01:12:45;;;;;;;0.65;0.65;;;;;;;18.19;52.43;99317.38;4954995;29;20059;-88
2022/09/13 01:15:11;;;;;;;1.17;0.40;;;;;;;17.75;52.23;99208.47;4943592;29;20129;-86
2022/09/13 01:17:38;;;;;;;0.35;0.35;;;;;;;17.77;52.63;99261.75;4955592;29;20483;-85
2022/09/13 01:20:07;;;;;;;1.17;1.13;;;;;;;17.41;53.47;99207.56;4955290;29;20070;-86
2022/09/13 01:23:03;;;;;;;0.73;0.73;;;;;;;18.22;52.60;99319.88;4955398;29;20034;-87
2022/09/13 01:25:43;;;;;;;0.60;0.60;;;;;;;18.04;53.09;99318.19;4955107;29;20038;-86
2022/09/13 01:28:28;;;;;;;4.22;1.42;;;;;;;17.41;54.16;99239.56;4955545;29;20031;-86
2022/09/13 01:31:14;;;;;;;0.57;0.57;;;;;;;17.68;53.98;99274.59;4936032;29;20047;-84
2022/09/13 01:34:12;;;;;;;0.75;0.75;;;;;;;17.50;53.67;99248.88;4936246;29;20063;-86
2022/09/13 01:36:55;;;;;;;0.82;0.82;;;;;;;17.39;53.97;99249.41;4940890;29;20035;-86
2022/09/13 01:39:35;;;;;;;1.10;0.80;;;;;;;17.67;53.73;99288.00;4955229;29;20481;-86
2022/09/13 01:42:21;;;;;;;0.65;0.65;;;;;;;17.83;54.28;99318.31;4954682;29;20062;-88
2022/09/13 01:45:17;;;;;;;1.48;1.38;;;;;;;17.67;54.31;99302.22;4954973;29;20055;-88
2022/09/13 01:48:21;;;;;;;0.70;0.70;;;;;;;17.36;54.54;99265.56;4954277;29;20131;-87
2022/09/13 01:50:56;;;;;;;2.35;2.15;;;;;;;17.28;55.18;99259.75;4943035;29;20139;-87
2022/09/13 01:53:40;;;;;;;0.13;0.13;;;;;;;17.46;54.47;99273.97;4954876;28;20118;-86
2022/09/13 01:56:24;;;;;;;0.35;0.35;;;;;;;17.68;55.00;99317.28;4954681;29;20035;-85
2022/09/13 01:58:57;;;;;;;0.10;0.10;;;;;;;17.08;55.03;99232.28;4947597;29;20446;-85
2022/09/13 02:01:32;;;;;;;0.82;0.82;;;;;;;17.26;54.91;99254.50;4954783;29;20036;-86
2022/09/13 02:04:03;;;;;;;1.58;1.27;;;;;;;17.53;54.28;99267.38;4954648;28;20055;-86
2022/09/13 02:06:38;;;;;;;0.68;0.68;;;;;;;17.50;54.28;99230.19;4954198;29;20066;-86
2022/09/13 02:09:10;;;;;;;0.95;0.70;;;;;;;17.22;54.68;99210.28;4954066;29;20493;-86
2022/09/13 02:11:39;;;;;;;1.13;0.98;;;;;;;17.27;54.21;99216.25;4954365;29;20561;-86
2022/09/13 02:14:16;;;;;;;1.25;0.60;;;;;;;17.64;54.24;99267.72;4954370;29;20023;-86
2022/09/13 02:17:00;;;;;;;1.45;1.00;;;;;;;17.65;54.29;99271.25;4953830;29;20032;-85
2022/09/13 02:19:35;;;;;;;0.95;0.85;;;;;;;17.18;54.57;99233.56;4954236;29;20039;-85
2022/09/13 02:22:03;;;;;;;0.52;0.52;;;;;;;17.30;54.87;99226.75;4954550;29;20035;-85
2022/09/13 02:24:32;;;;;;;0.30;0.30;;;;;;;17.16;54.29;99198.13;4954667;29;20039;-85
2022/09/13 02:27:06;;;;;;;0.20;0.20;;;;;;;17.61;54.15;99277.66;4954045;29;20035;-85
2022/09/13 02:29:34;;;;;;;2.03;1.40;;;;;;;17.37;54.56;99245.97;4953669;29;20109;-86
2022/09/13 02:32:18;;;;;;;0.45;0.35;;;;;;;17.12;54.85;99255.19;4954456;29;20042;-84
2022/09/13 02:34:52;;;;;;;0.32;0.25;;;;;;;17.17;55.18;99244.28;4954189;29;20457;-86
2022/09/13 02:37:19;;;;;;;0.87;0.87;;;;;;;17.23;54.21;99254.66;4968907;28;20039;-85
2022/09/13 02:39:54;;;;;;;0.73;0.63;;;;;;;17.11;54.45;99207.28;4953882;29;20891;-85
2022/09/13 02:42:25;;;;;;;0.55;0.55;;;;;;;17.41;54.23;99270.66;4953889;28;20043;-84
2022/09/13 02:44:55;;;;;;;1.17;0.90;;;;;;;17.33;54.35;99265.72;4961286;28;20126;-84
2022/09/13 02:47:38;;;;;;;0.55;0.45;;;;;;;17.04;54.50;99213.84;4954004;29;20529;-84
2022/09/13 02:50:22;;;;;;;1.13;1.02;;;;;;;17.59;54.49;99315.06;4953428;29;20278;-84
2022/09/13 02:53:24;;;;;;;0.98;0.90;;;;;;;17.44;54.95;99318.50;4954150;28;20035;-85
2022/09/13 02:56:28;;;;;;;0.30;0.30;;;;;;;17.06;54.53;99235.97;4952957;28;20039;-84
2022/09/13 02:59:02;;;;;;;0.63;0.63;;;;;;;17.46;54.51;99320.16;4946424;29;20430;-85
2022/09/13 03:01:28;;;;;;;0.98;0.98;;;;;;;17.27;54.19;99250.00;4953526;28;20046;-87
2022/09/13 03:03:54;;;;;;;1.00;1.00;;;;;;;17.40;53.77;99259.13;4953218;28;20052;-88
2022/09/13 03:06:27;;;;;;;1.13;1.05;;;;;;;17.08;54.16;99264.25;4953129;28;20055;-86
2022/09/13 03:09:19;;;;;;;0.40;0.40;;;;;;;17.00;54.30;99253.97;4946023;29;20143;-86
2022/09/13 03:12:03;;;;;;;1.08;0.98;;;;;;;17.57;53.87;99338.28;4947268;29;20046;-87
2022/09/13 03:14:48;;;;;;;1.03;0.73;;;;;;;17.63;53.34;99324.66;4952227;29;20069;-85
2022/09/13 03:17:16;;;;;;;0.60;0.60;;;;;;;17.43;53.38;99330.97;4952621;29;20448;-85
2022/09/13 03:19:53;;;;;;;1.35;1.10;;;;;;;17.58;53.17;99325.81;4953195;29;20494;-84
2022/09/13 03:22:39;;;;;;;0.45;0.45;;;;;;;17.51;53.34;99341.25;4953352;29;20492;-85
2022/09/13 03:25:35;;;;;;;0.60;0.60;;;;;;;17.09;53.25;99267.78;4947738;29;20054;-85
2022/09/13 03:28:36;;;;;;;1.40;1.30;;;;;;;17.27;53.21;99290.88;4951617;29;20049;-84
2022/09/13 03:31:12;;;;;;;0.40;0.40;;;;;;;16.78;53.23;99234.59;4952032;29;20540;-87
2022/09/13 03:33:56;;;;;;;0.20;0.20;;;;;;;16.95;53.36;99240.00;4948470;28;20035;-87
2022/09/13 03:36:56;;;;;;;3.33;1.73;;;;;;;17.28;53.06;99299.72;4934117;29;20051;-85
2022/09/13 03:39:41;;;;;;;0.88;0.80;;;;;;;17.09;52.90;99283.78;4930412;29;20051;-84
2022/09/13 03:42:27;;;;;;;0.68;0.68;;;;;;;17.04;52.93;99262.69;4932706;29;20043;-84
2022/09/13 03:44:56;;;;;;;0.73;0.73;;;;;;;16.84;53.49;99229.00;4932699;29;20047;-88
2022/09/13 03:47:25;;;;;;;0.75;0.75;;;;;;;17.00;52.94;99235.31;4947830;29;20040;-85
2022/09/13 03:49:54;;;;;;;0.65;0.65;;;;;;;16.76;53.65;99236.47;4952862;29;20027;-83
2022/09/13 03:52:19;;;;;;;0.70;0.70;;;;;;;17.21;53.85;99331.16;4952759;29;20035;-83
2022/09/13 03:54:45;;;;;;;0.93;0.73;;;;;;;16.75;53.90;99253.41;4952895;29;20490;-82
2022/09/13 03:57:21;;;;;;;0.20;0.20;;;;;;;16.74;53.81;99260.50;4952152;29;20046;-83
2022/09/13 03:59:53;;;;;;;0.28;0.28;;;;;;;17.34;53.86;99332.28;4945352;29;20106;-83
2022/09/13 04:02:22;;;;;;;0.52;0.52;;;;;;;16.81;54.34;99287.72;4952282;28;20039;-87
2022/09/13 04:04:48;;;;;;;0.90;0.90;;;;;;;16.73;54.49;99266.78;4952717;29;20042;-86
2022/09/13 04:07:16;;;;;;;1.10;0.85;;;;;;;16.80;54.80;99278.00;4947382;28;20584;-84
2022/09/13 04:09:42;;;;;;;1.42;1.33;;;;;;;16.96;54.61;99303.03;4958044;28;20039;-84
2022/09/13 04:12:13;;;;;;;0.55;0.55;;;;;;;16.79;55.29;99270.94;4951298;29;20036;-85
2022/09/13 04:14:39;;;;;;;0.20;0.20;;;;;;;17.09;54.67;99311.28;4952387;29;20039;-87
2022/09/13 04:17:05;;;;;;;1.08;0.75;;;;;;;16.79;55.22;99279.81;4952314;29;20038;-81
2022/09/13 04:19:31;;;;;;;4.22;1.08;;;;;;;16.98;55.59;99301.13;4952454;29;20027;-78
2022/09/13 04:21:56;;;;;;;1.05;0.93;;;;;;;16.78;55.24;99288.72;4951910;29;20046;-79
2022/09/13 04:24:25;;;;;;;0.68;0.63;;;;;;;16.73;56.11;99284.53;4932601;29;20162;-78
2022/09/13 04:26:53;;;;;;;0.13;0.13;;;;;;;16.59;56.19;99245.25;4943771;29;20114;-79
2022/09/13 04:29:20;;;;;;;0.47;0.47;;;;;;;16.91;55.71;99283.72;4951930;29;20028;-79
2022/09/13 04:31:46;;;;;;;1.25;1.08;;;;;;;17.12;56.01;99319.13;4950982;29;20042;-80
2022/09/13 04:34:12;;;;;;;0.10;0.10;;;;;;;16.98;56.27;99308.28;4953073;29;20035;-79
2022/09/13 04:36:38;;;;;;;1.02;0.65;;;;;;;17.25;56.38;99351.38;4946400;29;20054;-80
2022/09/13 04:39:03;;;;;;;1.55;0.65;;;;;;;17.14;56.14;99301.25;4938586;29;20031;-81
2022/09/13 04:41:30;;;;;;;0.60;0.60;;;;;;;17.09;56.09;99291.78;4967156;28;20043;-81
2022/09/13 04:43:56;;;;;;;0.52;0.52;;;;;;;17.25;55.83;99318.53;4966151;28;20039;-83
2022/09/13 04:46:21;;;;;;;0.35;0.35;;;;;;;17.18;55.85;99318.84;4952272;29;20031;-80
2022/09/13 04:48:49;;;;;;;0.88;0.88;;;;;;;17.50;55.44;99350.19;4951411;28;20039;-79
2022/09/13 04:51:15;;;;;;;0.63;0.63;;;;;;;17.32;55.09;99311.97;4950974;29;20948;-80
2022/09/13 04:53:41;;;;;;;1.42;1.33;;;;;;;17.22;55.36;99281.38;4952135;28;20054;-86
2022/09/13 04:56:08;;;;;;;0.68;0.68;;;;;;;17.85;55.43;99368.94;4951008;29;20493;-83
2022/09/13 04:58:33;;;;;;;1.42;1.33;;;;;;;17.30;54.89;99269.41;4966067;28;20482;-83
2022/09/13 05:01:07;;;;;;;6.80;2.22;;;;;;;17.48;55.00;99282.75;4950909;29;20037;-87
2022/09/13 05:03:34;;;;;;;1.05;1.05;;;;;;;17.86;55.16;99306.63;4949507;29;20054;-84
2022/09/13 05:06:09;;;;;;;1.30;1.08;;;;;;;17.70;54.91;99290.53;4950520;29;20042;-83
2022/09/13 05:08:35;;;;;;;0.63;0.60;;;;;;;17.79;54.87;99297.22;4950974;29;20193;-84
2022/09/13 05:11:01;;;;;;;0.82;0.82;;;;;;;17.96;54.64;99296.38;4951322;28;20039;-83
2022/09/13 05:13:27;;;;;;;1.00;0.95;;;;;;;17.93;54.70;99286.72;4951038;29;20049;-83
2022/09/13 05:15:57;;;;;;;2.35;1.65;;;;;;;18.08;55.21;99311.75;4951870;28;20027;-83
2022/09/13 05:18:27;;;;;;;0.35;0.35;;;;;;;18.15;54.95;99318.50;4953360;28;20078;-82
2022/09/13 05:20:57;;;;;;;2.03;1.10;;;;;;;18.12;54.61;99293.75;4955471;29;20031;-83
2022/09/13 05:23:24;;;;;;;0.85;0.57;;;;;;;18.34;54.46;99310.38;4954472;29;20038;-83
2022/09/13 05:26:00;;;;;;;0.32;0.32;;;;;;;18.62;53.62;99338.28;4955547;29;20031;-82
2022/09/13 05:28:30;;;;;;;4.18;2.63;;;;;;;18.53;53.17;99299.56;4954568;29;20031;-83
2022/09/13 05:31:02;;;;;;;1.23;1.13;;;;;;;18.65;53.55;99302.53;4955113;29;20035;-82
2022/09/13 05:33:29;;;;;;;1.67;1.58;;;;;;;18.93;52.02;99328.63;4954195;29;20050;-84
2022/09/13 05:35:55;;;;;;;1.25;1.15;;;;;;;18.89;52.14;99303.00;4954342;29;20074;-82
2022/09/13 05:38:21;;;;;;;0.30;0.30;;;;;;;19.16;51.68;99286.38;4953653;29;20039;-84
2022/09/13 05:40:47;;;;;;;2.28;1.23;;;;;;;19.28;50.93;99323.97;4954887;29;20109;-82
2022/09/13 05:43:13;;;;;;;0.70;0.70;;;;;;;19.11;51.09;99275.94;4954025;29;20043;-82
2022/09/13 05:45:39;;;;;;;0.50;0.50;;;;;;;19.45;51.10;99328.34;4953199;29;20090;-85
2022/09/13 05:48:05;;;;;;;1.90;1.77;;;;;;;19.63;50.11;99298.81;4969943;28;20034;-86
2022/09/13 05:50:31;;;;;;;4.07;1.05;;;;;;;19.68;50.60;99320.81;4954103;29;20039;-84
2022/09/13 05:52:56;;;;;;;0.93;0.55;;;;;;;19.63;50.13;99315.75;4954369;29;20047;-84
2022/09/13 05:55:22;;;;;;;3.72;0.73;;;;;;;19.38;49.80;99289.53;4953704;29;20086;-82
2022/09/13 05:57:48;;;;;;;0.20;0.20;;;;;;;19.82;49.52;99290.59;4954109;28;20039;-82
2022/09/13 06:00:15;;;;;;;0.57;0.47;;;;;;;20.04;49.21;99322.28;4954483;29;20157;-83
2022/09/13 06:02:41;;;;;;;1.30;1.20;;;;;;;20.01;48.39;99307.25;4954695;28;20058;-81
2022/09/13 06:05:09;;;;;;;1.00;0.95;;;;;;;20.24;49.24;99317.56;4952523;29;20098;-81
2022/09/13 06:07:35;;;;;;;0.75;0.75;;;;;;;20.11;48.84;99286.16;4954666;29;20086;-82
2022/09/13 06:10:01;;;;;;;1.05;1.05;;;;;;;20.30;48.25;99295.75;4953410;29;20035;-83
2022/09/13 06:12:27;;;;;;;2.17;2.08;;;;;;;20.11;48.15;99267.44;4949364;28;20525;-83
2022/09/13 06:14:52;;;;;;;0.95;0.95;;;;;;;20.31;48.00;99314.41;4934467;29;20059;-81
2022/09/13 06:17:18;;;;;;;1.60;0.98;;;;;;;20.65;48.03;99348.97;4941731;29;20560;-81
2022/09/13 06:19:43;;;;;;;0.32;0.32;;;;;;;20.60;47.89;99332.31;4954000;29;20094;-82
2022/09/13 06:22:09;;;;;;;1.02;0.95;;;;;;;20.86;47.70;99350.31;4954336;29;20028;-84
2022/09/13 06:24:36;;;;;;;0.63;0.63;;;;;;;20.82;47.16;99268.41;4954409;29;20537;-84
2022/09/13 06:27:02;;;;;;;1.55;1.42;;;;;;;21.23;46.62;99305.06;4954024;29;20027;-86
2022/09/13 06:29:27;;;;;;;45.72;2.97;;;;;;;21.23;45.82;99313.09;4952296;28;20061;-82
2022/09/13 06:31:53;;;;;;;1.35;1.25;;;;;;;21.05;45.87;99320.53;4953965;29;20597;-81
2022/09/13 06:34:18;;;;;;;0.47;0.47;;;;;;;20.73;46.39;99309.19;4954298;29;20027;-82
2022/09/13 06:36:44;;;;;;;0.70;0.70;;;;;;;21.08;46.31;99339.06;4954485;29;20035;-82
2022/09/13 06:39:09;;;;;;;0.70;0.63;;;;;;;20.93;45.49;99298.03;4953162;29;20027;-82
2022/09/13 06:41:36;;;;;;;0.80;0.65;;;;;;;21.00;45.44;99279.72;4952421;29;20046;-82
2022/09/13 06:44:01;;;;;;;0.73;0.73;;;;;;;21.23;45.30;99317.59;4953007;29;20046;-81
2022/09/13 06:46:29;;;;;;;0.60;0.60;;;;;;;21.36;45.51;99329.25;4954076;29;20031;-82
2022/09/13 06:48:58;;;;;;;0.28;0.28;;;;;;;21.16;44.11;99306.41;4949252;29;20039;-82
2022/09/13 06:51:25;;;;;;;0.20;0.20;;;;;;;21.09;44.75;99324.72;4949207;29;20111;-81
2022/09/13 06:53:52;;;;;;;2.63;1.35;;;;;;;21.15;44.66;99280.56;4952418;29;20031;-82
2022/09/13 06:56:29;;;;;;;2.38;1.83;;;;;;;21.75;43.96;99345.53;4952416;29;20037;-81
2022/09/13 06:58:58;;;;;;;6.03;2.75;;;;;;;21.49;43.23;99297.16;4952579;29;20031;-81
2022/09/13 07:01:33;;;;;;;0.73;0.65;;;;;;;21.76;44.45;99334.69;4952675;29;20490;-81
2022/09/13 07:04:05;;;;;;;0.75;0.75;;;;;;;21.96;43.32;99329.78;4952175;28;20050;-81
2022/09/13 07:06:42;;;;;;;0.32;0.32;;;;;;;22.03;43.25;99322.16;4952347;29;20486;-81
2022/09/13 07:09:11;;;;;;;0.73;0.73;;;;;;;22.30;43.34;99339.09;4953511;28;20058;-82
2022/09/13 07:11:39;;;;;;;1.30;1.15;;;;;;;22.08;42.48;99298.56;4952212;28;20075;-82
2022/09/13 07:14:07;;;;;;;0.68;0.68;;;;;;;22.03;42.80;99303.38;4953842;28;20031;-84
2022/09/13 07:16:35;;;;;;;1.10;1.00;;;;;;;22.13;43.07;99293.72;4953433;28;20031;-83
2022/09/13 07:19:04;;;;;;;0.40;0.40;;;;;;;22.51;40.16;99343.97;4953962;28;20027;-83
2022/09/13 07:21:31;;;;;;;0.10;0.10;;;;;;;22.46;40.23;99349.66;4951892;29;20031;-84
2022/09/13 07:23:57;;;;;;;0.60;0.60;;;;;;;22.55;40.78;99355.34;4953624;28;20083;-83
2022/09/13 07:26:23;;;;;;;0.75;0.30;;;;;;;22.59;40.59;99330.00;4953474;28;20540;-83
2022/09/13 07:28:52;;;;;;;43.92;1.77;;;;;;;22.75;40.76;99373.63;4953136;28;20478;-84
2022/09/13 07:31:22;;;;;;;1.65;1.42;;;;;;;22.57;40.90;99356.97;4952904;28;20042;-82
2022/09/13 07:33:54;;;;;;;1.27;1.17;;;;;;;22.78;40.71;99367.19;4952979;28;20031;-82
2022/09/13 07:36:20;;;;;;;0.22;0.20;;;;;;;22.47;40.52;99337.09;4952173;29;20469;-82
2022/09/13 07:38:58;;;;;;;0.38;0.38;;;;;;;22.51;40.50;99360.94;4953423;28;20054;-81
2022/09/13 07:41:26;;;;;;;1.17;1.08;;;;;;;22.73;44.07;99415.91;4952417;28;20114;-80
2022/09/13 07:43:52;;;;;;;4.18;1.20;;;;;;;23.03;41.14;99385.97;4953394;28;20067;-80
2022/09/13 07:46:20;;;;;;;0.30;0.30;;;;;;;22.99;40.40;99330.69;4951651;28;20039;-81
2022/09/13 07:48:47;;;;;;;0.28;0.28;;;;;;;23.58;40.00;99413.41;4951978;29;20034;-81
2022/09/13 07:51:16;;;;;;;0.20;0.20;;;;;;;23.06;39.89;99345.41;4952855;28;20035;-81
2022/09/13 07:53:43;;;;;;;1.55;1.45;;;;;;;23.32;39.11;99342.66;4953067;28;20502;-81
2022/09/13 07:56:12;;;;;;;1.98;1.65;;;;;;;23.44;40.35;99399.28;4953318;28;20092;-82
2022/09/13 07:58:39;;;;;;;0.43;0.43;;;;;;;23.25;39.81;99333.34;4951126;29;20027;-82
2022/09/13 08:01:14;;;;;;;0.17;0.17;;;;;;;23.68;38.81;99385.81;4953087;28;20031;-81
2022/09/13 08:03:40;;;;;;;1.45;1.35;;;;;;;23.48;37.67;99349.59;4953350;28;20043;-82
2022/09/13 08:06:07;;;;;;;1.65;1.27;;;;;;;23.83;38.09;99373.03;4952776;28;20553;-81
2022/09/13 08:08:34;;;;;;;0.40;0.40;;;;;;;23.63;38.21;99334.16;4951954;29;20063;-81
2022/09/13 08:11:00;;;;;;;0.35;0.35;;;;;;;;;;4953026;28;20059;-81
2022/09/13 08:13:27;;;;;;;0.55;0.52;;;;;;;23.68;40.41;99335.53;4952659;28;20477;-82
2022/09/13 08:15:54;;;;;;;0.73;0.73;;;;;;;23.86;39.59;99321.69;4953129;28;20500;-82
2022/09/13 08:18:19;;;;;;;0.60;0.55;;;;;;;23.69;40.79;99349.84;4952907;28;20051;-82
2022/09/13 08:20:45;;;;;;;1.02;0.85;;;;;;;23.77;41.73;99347.44;4951639;29;20055;-81
2022/09/13 08:23:12;;;;;;;1.92;1.75;;;;;;;23.90;39.29;99328.56;4953046;28;20027;-82
2022/09/13 08:25:38;;;;;;;0.13;0.13;;;;;;;23.68;40.56;99332.84;4952857;28;20545;-82
2022/09/13 08:28:13;;;;;;;0.43;0.32;;;;;;;23.93;39.24;99360.66;4951468;29;20023;-81
2022/09/13 08:30:40;;;;;;;;;;;;;;;24.54;40.39;99392.78;4953165;28;20027;-83
2022/09/13 08:33:06;;;;;;;0.43;0.43;;;;;;;24.25;37.77;99368.97;4953039;29;19911;-81
2022/09/13 08:35:32;;;;;;;0.50;0.50;;;;;;;24.15;38.15;99326.69;4952629;28;20099;-81
2022/09/13 08:37:59;;;;;;;0.30;0.30;;;;;;;23.57;38.32;99295.97;4953139;28;20578;-82
2022/09/13 08:40:29;;;;;;;1.48;0.82;;;;;;;23.52;39.23;99332.25;4952569;28;20549;-82
2022/09/13 08:43:09;;;;;;;1.00;0.52;;;;;;;23.89;38.03;99316.06;4952759;28;20528;-81
2022/09/13 08:45:35;;;;;;;0.47;0.47;;;;;;;24.36;37.92;99357.34;4952982;28;20038;-81
2022/09/13 08:48:10;;;;;;;0.60;0.60;;;;;;;24.11;36.97;99379.91;4952585;28;20039;-81
2022/09/13 08:50:37;;;;;;;0.13;0.13;;;;;;;23.42;37.30;99351.78;4952026;28;20027;-81
2022/09/13 08:53:18;;;;;;;0.32;0.32;;;;;;;23.17;39.75;99387.72;4952180;28;20039;-81
2022/09/13 08:56:23;;;;;;;0.10;0.10;;;;;;;23.58;40.61;99381.09;4956308;29;20094;-82
2022/09/13 08:59:16;;;;;;;0.15;0.15;;;;;;;24.16;37.69;99334.63;4956585;28;20039;-81
2022/09/13 09:01:56;;;;;;;0.75;0.75;;;;;;;24.28;37.22;99390.28;4956259;28;20031;-85
2022/09/13 09:04:49;;;;;;;0.20;0.20;;;;;;;24.16;37.77;99322.97;4956141;29;20046;-81
2022/09/13 09:07:24;;;;;;;0.43;0.28;;;;;;;23.55;37.47;99338.25;4960613;28;20118;-81
2022/09/13 09:09:57;;;;;;;19.85;1.27;;;;;;;23.69;39.06;99286.06;4932296;29;20055;-82
2022/09/13 09:12:42;;;;;;;0.20;0.20;;;;;;;24.11;36.87;99309.88;4933782;29;20047;-82
2022/09/13 09:15:17;;;;;;;;;;;;;;;24.91;35.82;99351.28;4962399;28;20490;-82
2022/09/13 09:17:46;;;;;;;0.88;0.85;;;;;;;24.43;35.66;99322.69;4957706;28;19974;-84
2022/09/13 09:20:41;;;;;;;2.05;1.35;;;;;;;24.36;35.21;99369.94;4948496;28;20038;-88
2022/09/13 09:23:13;;;;;;;;;;;;;;;24.30;34.83;99368.59;4943275;28;20061;-85
2022/09/13 09:25:38;;;;;;;0.10;0.10;;;;;;;24.46;34.87;99352.94;4953879;28;19929;-84
2022/09/13 09:28:16;;;;;;;0.57;0.57;;;;;;;24.35;33.48;99290.94;4960185;28;20477;-84
2022/09/13 09:31:06;;;;;;;0.15;0.15;;;;;;;24.74;31.74;99334.59;4945067;28;20036;-85
2022/09/13 09:34:05;;;;;;;0.32;0.32;;;;;;;24.91;31.83;99371.03;4933716;29;20418;-86
2022/09/13 09:36:34;;;;;;;0.65;0.45;;;;;;;24.79;32.49;99358.50;4950231;28;20450;-85
2022/09/13 09:39:02;;;;;;;1.63;0.85;;;;;;;24.33;32.47;99289.31;4933305;29;20087;-84
2022/09/13 09:41:31;;;;;;;0.30;0.30;;;;;;;24.16;33.10;99296.03;4930907;29;20031;-85
2022/09/13 09:44:20;;;;;;;0.20;0.20;;;;;;;24.30;34.10;99376.69;4930541;29;20047;-85
2022/09/13 09:46:55;;;;;;;0.30;0.30;;;;;;;23.44;35.23;99311.31;4967894;28;20057;-82
2022/09/13 09:52:36;;;;;;;0.40;0.40;;;;;;;23.41;34.67;99344.69;4954743;28;20050;-85
2022/09/13 09:55:13;;;;;;;0.50;0.47;;;;;;;23.23;34.40;99335.25;4969331;28;20027;-85
2022/09/13 09:57:54;;;;;;;0.77;0.77;;;;;;;23.31;35.14;99358.91;4971102;28;20031;-85
2022/09/13 10:00:22;;;;;;;0.45;0.38;;;;;;;23.00;34.69;99324.34;4974372;28;20113;-84
2022/09/13 10:02:51;;;;;;;0.63;0.63;;;;;;;22.63;35.12;99300.09;4971377;28;20051;-85
2022/09/13 10:05:19;;;;;;;0.40;0.40;;;;;;;22.78;36.04;99325.00;4969525;28;20041;-85
2022/09/13 10:07:53;;;;;;;0.93;0.70;;;;;;;23.62;36.38;99397.03;4969574;28;20118;-86
2022/09/13 10:10:35;;;;;;;0.30;0.30;;;;;;;23.26;35.41;99326.97;4969789;28;20540;-83
2022/09/13 10:13:05;;;;;;;0.55;0.40;;;;;;;23.24;35.14;99316.31;4968232;28;20041;-85
2022/09/13 10:15:33;;;;;;;0.93;0.90;;;;;;;23.65;35.58;99346.53;4968626;28;20096;-85
2022/09/13 10:18:04;;;;;;;0.85;0.73;;;;;;;24.22;34.81;99374.59;4969805;28;20058;-86
2022/09/13 10:20:30;;;;;;;0.30;0.30;;;;;;;23.80;34.31;99308.66;4970990;28;20061;-85
2022/09/13 10:23:10;;;;;;;0.25;0.25;;;;;;;24.52;34.92;99321.09;4969014;28;20484;-85
2022/09/13 10:25:36;;;;;;;0.30;0.30;;;;;;;24.17;33.57;99282.44;4969911;28;20117;-85
2022/09/13 10:28:08;;;;;;;0.30;0.30;;;;;;;24.38;34.49;99290.69;4970004;28;20066;-85
2022/09/13 10:31:06;;;;;;;0.90;0.75;;;;;;;24.98;33.81;99290.47;4969692;28;20141;-85
2022/09/13 10:33:34;;;;;;;0.98;0.80;;;;;;;25.16;34.90;99339.38;4969492;28;20051;-84
2022/09/13 10:36:04;;;;;;;0.10;0.10;;;;;;;24.72;33.41;99271.00;4969992;28;20094;-84
2022/09/13 10:38:39;;;;;;;0.25;0.25;;;;;;;24.70;32.75;99278.34;4970025;28;20031;-84
2022/09/13 10:41:10;;;;;;;0.20;0.20;;;;;;;24.62;31.89;99277.16;4969575;28;20035;-85
2022/09/13 10:43:36;;;;;;;0.70;0.52;;;;;;;24.76;33.05;99291.34;4969881;28;20039;-85
2022/09/13 10:46:05;;;;;;;0.50;0.50;;;;;;;24.35;33.20;99276.63;4969435;28;20556;-84
2022/09/13 10:48:54;;;;;;;0.03;0.03;;;;;;;24.55;33.41;99286.66;4969804;28;20038;-86
2022/09/13 10:51:35;;;;;;;0.38;0.38;;;;;;;24.06;34.49;99260.88;4969033;28;20488;-84
2022/09/13 10:54:27;;;;;;;7.15;2.17;;;;;;;24.41;35.28;99270.75;4969256;28;20031;-85
2022/09/13 10:56:52;;;;;;;0.15;0.15;;;;;;;24.79;34.62;99289.28;4969918;28;20023;-86
2022/09/13 10:59:29;;;;;;;0.30;0.30;;;;;;;25.15;33.92;99297.19;4969479;28;20390;-84
2022/09/13 11:02:32;;;;;;;0.40;0.40;;;;;;;25.32;32.94;99314.72;4967820;28;20034;-84
2022/09/13 11:05:31;;;;;;;0.60;0.43;;;;;;;25.43;34.43;99313.84;4968957;28;20085;-85
2022/09/13 11:08:02;;;;;;;0.40;0.40;;;;;;;25.43;32.94;99295.78;4971897;28;20030;-85
2022/09/13 11:10:54;;;;;;;0.17;0.17;;;;;;;25.30;31.88;99316.69;4969178;28;20031;-85
2022/09/13 11:13:42;;;;;;;0.10;0.10;;;;;;;25.35;33.13;99315.31;4957622;28;20406;-86
2022/09/13 11:16:31;;;;;;;0.40;0.20;;;;;;;25.72;32.07;99306.00;4968206;28;20085;-86
2022/09/13 11:19:06;;;;;;;4.88;0.63;;;;;;;26.03;31.25;99314.25;4968889;28;20590;-87
2022/09/13 11:21:43;;;;;;;0.50;0.50;;;;;;;25.88;30.35;99301.00;4968929;28;20030;-85
2022/09/13 11:24:15;;;;;;;0.57;0.43;;;;;;;25.59;30.79;99306.16;4969147;28;20037;-86
2022/09/13 11:27:02;;;;;;;0.20;0.20;;;;;;;25.54;31.56;99301.16;4970603;28;20027;-84
2022/09/13 11:29:36;;;;;;;0.63;0.50;;;;;;;25.47;30.89;99218.09;4971522;28;20409;-85
2022/09/13 11:32:26;;;;;;;0.50;0.43;;;;;;;25.77;30.76;99295.66;4968834;28;20118;-87
2022/09/13 11:35:17;;;;;;;0.60;0.57;;;;;;;25.49;32.28;99270.13;4961522;28;20490;-85
2022/09/13 11:38:00;;;;;;;0.30;0.30;;;;;;;25.74;31.27;99290.50;4951538;28;20403;-87
2022/09/13 11:40:44;;;;;;;0.38;0.38;;;;;;;25.64;32.05;99282.34;4947878;29;20078;-87
2022/09/13 11:43:13;;;;;;;1.08;0.77;;;;;;;25.60;31.86;99282.72;4949270;29;20047;-86
2022/09/13 11:45:49;;;;;;;0.30;0.30;;;;;;;25.41;30.83;99294.19;4947926;29;20043;-86
2022/09/13 11:48:17;;;;;;;1.52;1.08;;;;;;;25.20;32.38;99282.31;4949428;28;20090;-86
2022/09/13 11:51:16;;;;;;;0.68;0.68;;;;;;;25.33;32.21;99279.50;4948053;29;20449;-87
2022/09/13 11:53:57;;;;;;;0.20;0.20;;;;;;;25.25;33.36;99233.34;4949442;28;20047;-87
2022/09/13 11:56:37;;;;;;;0.65;0.65;;;;;;;25.37;32.87;99247.72;4948829;28;20039;-86
2022/09/13 11:59:36;;;;;;;0.52;0.43;;;;;;;25.26;31.33;99227.00;4949057;28;20077;-86
2022/09/13 12:02:16;;;;;;;0.40;0.38;;;;;;;25.29;31.71;99193.53;4949075;28;20031;-87
2022/09/13 12:04:54;;;;;;;0.43;0.30;;;;;;;25.50;29.38;99205.22;4947028;29;20126;-87